sensor_id;sensor_type;location;lat;lon;timestamp;P1;durP1;ratioP1;P2;durP2;ratioP2
35084;SDS011;21267;51.032;6.998;2023-02-24T01:20:08;44.40;;;20.90;;
35084;SDS011;21267;51.032;6.998;2023-02-24T06:13:51;23.33;;;8.55;;
35084;SDS011;21267;51.032;6.998;2023-02-24T06:53:07;22.73;;;6.03;;
35084;SDS011;21267;51.032;6.998;2023-02-24T07:02:59;23.58;;;4.15;;
35084;SDS011;21267;51.032;6.998;2023-02-24T08:08:27;16.27;;;3.33;;
35084;SDS011;21267;51.032;6.998;2023-02-24T08:22:28;9.90;;;2.05;;
35084;SDS011;21267;51.032;6.998;2023-02-24T09:30:38;18.90;;;4.30;;
35084;SDS011;21267;51.032;6.998;2023-02-24T09:33:47;15.70;;;3.83;;
35084;SDS011;21267;51.032;6.998;2023-02-24T10:00:07;5.88;;;3.15;;
35084;SDS011;21267;51.032;6.998;2023-02-24T10:49:18;6.70;;;3.17;;
35084;SDS011;21267;51.032;6.998;2023-02-24T11:54:16;10.25;;;4.57;;
35084;SDS011;21267;51.032;6.998;2023-02-24T11:57:42;11.77;;;3.58;;
35084;SDS011;21267;51.032;6.998;2023-02-24T12:00:30;9.35;;;2.33;;
35084;SDS011;21267;51.032;6.998;2023-02-24T18:58:39;11.35;;;6.07;;
35084;SDS011;21267;51.032;6.998;2023-02-24T19:01:09;17.65;;;8.32;;
35084;SDS011;21267;51.032;6.998;2023-02-24T19:03:42;12.95;;;5.25;;
35084;SDS011;21267;51.032;6.998;2023-02-24T19:06:24;15.68;;;7.50;;
35084;SDS011;21267;51.032;6.998;2023-02-24T19:09:07;12.75;;;5.50;;
35084;SDS011;21267;51.032;6.998;2023-02-24T19:11:49;9.63;;;3.70;;
35084;SDS011;21267;51.032;6.998;2023-02-24T19:14:31;13.35;;;4.50;;
35084;SDS011;21267;51.032;6.998;2023-02-24T19:16:57;9.27;;;2.90;;
35084;SDS011;21267;51.032;6.998;2023-02-24T19:19:26;12.68;;;3.33;;
35084;SDS011;21267;51.032;6.998;2023-02-24T19:21:52;8.52;;;3.35;;
35084;SDS011;21267;51.032;6.998;2023-02-24T19:24:19;4.03;;;1.67;;
35084;SDS011;21267;51.032;6.998;2023-02-24T19:26:46;7.78;;;3.92;;
35084;SDS011;21267;51.032;6.998;2023-02-24T19:29:16;7.63;;;3.17;;
35084;SDS011;21267;51.032;6.998;2023-02-24T19:31:57;7.75;;;2.90;;
35084;SDS011;21267;51.032;6.998;2023-02-24T19:34:24;8.07;;;2.40;;
35084;SDS011;21267;51.032;6.998;2023-02-24T19:36:51;6.07;;;2.72;;
35084;SDS011;21267;51.032;6.998;2023-02-24T19:39:17;3.28;;;2.03;;
35084;SDS011;21267;51.032;6.998;2023-02-24T19:41:49;9.73;;;3.03;;
35084;SDS011;21267;51.032;6.998;2023-02-24T19:44:16;8.20;;;2.35;;
35084;SDS011;21267;51.032;6.998;2023-02-24T19:46:43;8.50;;;2.50;;
35084;SDS011;21267;51.032;6.998;2023-02-24T19:49:09;7.28;;;2.63;;
35084;SDS011;21267;51.032;6.998;2023-02-24T19:51:36;12.55;;;3.13;;
35084;SDS011;21267;51.032;6.998;2023-02-24T19:54:03;12.90;;;1.85;;
35084;SDS011;21267;51.032;6.998;2023-02-24T19:56:32;8.68;;;3.33;;
35084;SDS011;21267;51.032;6.998;2023-02-24T19:59:02;6.93;;;2.75;;
35084;SDS011;21267;51.032;6.998;2023-02-24T20:01:30;8.30;;;2.35;;
35084;SDS011;21267;51.032;6.998;2023-02-24T20:03:58;11.93;;;2.73;;
35084;SDS011;21267;51.032;6.998;2023-02-24T20:06:31;10.40;;;2.67;;
35084;SDS011;21267;51.032;6.998;2023-02-24T20:09:03;7.57;;;2.65;;
35084;SDS011;21267;51.032;6.998;2023-02-24T20:11:33;11.40;;;2.83;;
35084;SDS011;21267;51.032;6.998;2023-02-24T20:14:09;7.28;;;3.10;;
35084;SDS011;21267;51.032;6.998;2023-02-24T20:16:37;11.00;;;2.72;;
35084;SDS011;21267;51.032;6.998;2023-02-24T20:19:07;6.07;;;2.35;;
35084;SDS011;21267;51.032;6.998;2023-02-24T20:21:37;12.93;;;3.38;;
35084;SDS011;21267;51.032;6.998;2023-02-24T20:24:13;8.82;;;3.08;;
35084;SDS011;21267;51.032;6.998;2023-02-24T20:26:43;7.43;;;2.65;;
35084;SDS011;21267;51.032;6.998;2023-02-24T20:29:16;8.23;;;2.78;;
35084;SDS011;21267;51.032;6.998;2023-02-24T20:31:44;9.65;;;2.90;;
35084;SDS011;21267;51.032;6.998;2023-02-24T20:34:11;7.03;;;2.90;;
35084;SDS011;21267;51.032;6.998;2023-02-24T20:36:40;10.95;;;3.08;;
35084;SDS011;21267;51.032;6.998;2023-02-24T20:39:06;11.02;;;3.28;;
35084;SDS011;21267;51.032;6.998;2023-02-24T20:41:33;13.32;;;2.70;;
35084;SDS011;21267;51.032;6.998;2023-02-24T20:44:00;14.95;;;3.10;;
35084;SDS011;21267;51.032;6.998;2023-02-24T20:46:27;13.02;;;2.53;;
35084;SDS011;21267;51.032;6.998;2023-02-24T20:49:04;8.60;;;2.60;;
35084;SDS011;21267;51.032;6.998;2023-02-24T20:51:35;9.23;;;3.47;;
35084;SDS011;21267;51.032;6.998;2023-02-24T20:54:03;10.73;;;3.28;;
35084;SDS011;21267;51.032;6.998;2023-02-24T20:56:32;13.48;;;2.88;;
35084;SDS011;21267;51.032;6.998;2023-02-24T21:01:29;12.77;;;2.50;;
35084;SDS011;21267;51.032;6.998;2023-02-24T21:06:22;10.57;;;2.45;;
35084;SDS011;21267;51.032;6.998;2023-02-24T21:08:50;11.95;;;2.08;;
35084;SDS011;21267;51.032;6.998;2023-02-24T21:11:18;15.27;;;2.78;;
35084;SDS011;21267;51.032;6.998;2023-02-24T21:13:46;8.90;;;2.63;;
35084;SDS011;21267;51.032;6.998;2023-02-24T21:16:14;13.13;;;2.58;;
35084;SDS011;21267;51.032;6.998;2023-02-24T21:18:43;15.18;;;2.55;;
35084;SDS011;21267;51.032;6.998;2023-02-24T21:21:11;10.18;;;2.20;;
35084;SDS011;21267;51.032;6.998;2023-02-24T21:23:39;10.20;;;2.50;;
35084;SDS011;21267;51.032;6.998;2023-02-24T21:26:07;10.57;;;2.30;;
35084;SDS011;21267;51.032;6.998;2023-02-24T21:28:35;13.57;;;2.92;;
35084;SDS011;21267;51.032;6.998;2023-02-24T21:31:09;13.40;;;3.27;;
35084;SDS011;21267;51.032;6.998;2023-02-24T21:33:37;9.98;;;2.65;;
35084;SDS011;21267;51.032;6.998;2023-02-24T21:36:04;12.35;;;2.67;;
35084;SDS011;21267;51.032;6.998;2023-02-24T21:38:33;10.32;;;2.85;;
35084;SDS011;21267;51.032;6.998;2023-02-24T21:43:28;15.18;;;2.85;;
35084;SDS011;21267;51.032;6.998;2023-02-24T21:45:55;12.25;;;2.35;;
35084;SDS011;21267;51.032;6.998;2023-02-24T21:48:25;8.93;;;2.70;;
35084;SDS011;21267;51.032;6.998;2023-02-24T21:50:58;9.75;;;2.83;;
35084;SDS011;21267;51.032;6.998;2023-02-24T21:53:25;15.07;;;2.83;;
35084;SDS011;21267;51.032;6.998;2023-02-24T21:56:06;6.60;;;1.70;;
35084;SDS011;21267;51.032;6.998;2023-02-24T21:59:03;3.38;;;1.20;;
35084;SDS011;21267;51.032;6.998;2023-02-24T22:04:01;11.27;;;2.50;;
35084;SDS011;21267;51.032;6.998;2023-02-24T22:06:30;11.80;;;2.88;;
35084;SDS011;21267;51.032;6.998;2023-02-24T22:08:59;6.75;;;2.58;;
35084;SDS011;21267;51.032;6.998;2023-02-24T22:11:28;13.82;;;2.35;;
35084;SDS011;21267;51.032;6.998;2023-02-24T22:13:57;14.20;;;3.53;;
35084;SDS011;21267;51.032;6.998;2023-02-24T22:16:24;10.07;;;2.75;;
35084;SDS011;21267;51.032;6.998;2023-02-24T22:18:51;14.88;;;3.30;;
35084;SDS011;21267;51.032;6.998;2023-02-24T22:21:20;22.17;;;3.10;;
35084;SDS011;21267;51.032;6.998;2023-02-24T22:23:50;12.75;;;3.70;;
35084;SDS011;21267;51.032;6.998;2023-02-24T22:26:19;16.60;;;3.95;;
35084;SDS011;21267;51.032;6.998;2023-02-24T22:28:48;13.23;;;2.50;;
35084;SDS011;21267;51.032;6.998;2023-02-24T22:31:17;16.20;;;2.92;;
35084;SDS011;21267;51.032;6.998;2023-02-24T22:33:45;16.90;;;2.97;;
35084;SDS011;21267;51.032;6.998;2023-02-24T22:36:13;15.20;;;4.15;;
35084;SDS011;21267;51.032;6.998;2023-02-24T22:38:42;22.45;;;3.13;;
35084;SDS011;21267;51.032;6.998;2023-02-24T22:41:11;16.17;;;2.80;;
35084;SDS011;21267;51.032;6.998;2023-02-24T22:43:40;16.58;;;2.95;;
35084;SDS011;21267;51.032;6.998;2023-02-24T22:46:14;14.25;;;2.83;;
35084;SDS011;21267;51.032;6.998;2023-02-24T22:48:43;6.15;;;0.90;;
35084;SDS011;21267;51.032;6.998;2023-02-24T22:51:10;10.57;;;2.47;;
35084;SDS011;21267;51.032;6.998;2023-02-24T22:53:39;13.18;;;3.70;;
35084;SDS011;21267;51.032;6.998;2023-02-24T22:56:09;11.73;;;1.75;;
35084;SDS011;21267;51.032;6.998;2023-02-24T22:58:37;16.13;;;3.05;;
35084;SDS011;21267;51.032;6.998;2023-02-24T23:01:11;14.10;;;2.88;;
35084;SDS011;21267;51.032;6.998;2023-02-24T23:03:49;13.52;;;2.75;;
35084;SDS011;21267;51.032;6.998;2023-02-24T23:06:20;14.57;;;3.33;;
35084;SDS011;21267;51.032;6.998;2023-02-24T23:08:49;11.18;;;2.17;;
35084;SDS011;21267;51.032;6.998;2023-02-24T23:11:51;9.35;;;2.88;;
35084;SDS011;21267;51.032;6.998;2023-02-24T23:14:11;12.95;;;3.30;;
35084;SDS011;21267;51.032;6.998;2023-02-24T23:16:40;18.90;;;3.60;;
35084;SDS011;21267;51.032;6.998;2023-02-24T23:19:09;15.80;;;3.60;;
35084;SDS011;21267;51.032;6.998;2023-02-24T23:21:42;13.43;;;2.63;;
35084;SDS011;21267;51.032;6.998;2023-02-24T23:24:12;7.00;;;1.63;;
35084;SDS011;21267;51.032;6.998;2023-02-24T23:26:41;13.18;;;3.17;;
35084;SDS011;21267;51.032;6.998;2023-02-24T23:29:11;14.80;;;3.20;;
35084;SDS011;21267;51.032;6.998;2023-02-24T23:31:40;20.05;;;3.42;;
35084;SDS011;21267;51.032;6.998;2023-02-24T23:34:07;19.42;;;3.35;;
35084;SDS011;21267;51.032;6.998;2023-02-24T23:36:36;19.17;;;3.97;;
35084;SDS011;21267;51.032;6.998;2023-02-24T23:39:05;14.70;;;2.80;;
35084;SDS011;21267;51.032;6.998;2023-02-24T23:41:34;24.52;;;4.03;;
35084;SDS011;21267;51.032;6.998;2023-02-24T23:44:03;20.95;;;3.22;;
35084;SDS011;21267;51.032;6.998;2023-02-24T23:48:57;14.20;;;4.07;;
35084;SDS011;21267;51.032;6.998;2023-02-24T23:51:24;19.63;;;3.40;;
35084;SDS011;21267;51.032;6.998;2023-02-24T23:53:53;16.20;;;3.22;;
35084;SDS011;21267;51.032;6.998;2023-02-24T23:56:23;16.90;;;3.67;;
35084;SDS011;21267;51.032;6.998;2023-02-24T23:58:52;16.65;;;3.03;;
